sensor_id;sensor_type;location;lat;lon;timestamp;P1;durP1;ratioP1;P2;durP2;ratioP2
85095;SDS011;75436;53.502;10.030;2024-03-07T00:02:14;30.40;;;14.10;;
85095;SDS011;75436;53.502;10.030;2024-03-07T00:04:39;32.63;;;15.00;;
85095;SDS011;75436;53.502;10.030;2024-03-07T00:07:05;36.72;;;14.50;;
85095;SDS011;75436;53.502;10.030;2024-03-07T00:09:32;32.88;;;14.48;;
85095;SDS011;75436;53.502;10.030;2024-03-07T00:11:59;35.03;;;13.65;;
85095;SDS011;75436;53.502;10.030;2024-03-07T00:14:25;30.65;;;13.65;;
85095;SDS011;75436;53.502;10.030;2024-03-07T00:16:55;27.35;;;12.32;;
85095;SDS011;75436;53.502;10.030;2024-03-07T00:19:22;31.63;;;13.77;;
85095;SDS011;75436;53.502;10.030;2024-03-07T00:21:54;31.35;;;12.40;;
85095;SDS011;75436;53.502;10.030;2024-03-07T00:24:20;31.45;;;13.23;;
85095;SDS011;75436;53.502;10.030;2024-03-07T00:26:46;32.15;;;12.85;;
85095;SDS011;75436;53.502;10.030;2024-03-07T00:29:15;31.85;;;12.52;;
85095;SDS011;75436;53.502;10.030;2024-03-07T00:31:43;31.48;;;12.68;;
85095;SDS011;75436;53.502;10.030;2024-03-07T00:34:08;31.15;;;12.63;;
85095;SDS011;75436;53.502;10.030;2024-03-07T00:36:35;31.73;;;13.00;;
85095;SDS011;75436;53.502;10.030;2024-03-07T00:39:00;27.52;;;12.07;;
85095;SDS011;75436;53.502;10.030;2024-03-07T00:41:26;28.10;;;12.43;;
85095;SDS011;75436;53.502;10.030;2024-03-07T00:43:51;32.53;;;13.60;;
85095;SDS011;75436;53.502;10.030;2024-03-07T00:46:16;28.02;;;11.73;;
85095;SDS011;75436;53.502;10.030;2024-03-07T00:48:42;25.58;;;11.13;;
85095;SDS011;75436;53.502;10.030;2024-03-07T00:51:07;27.63;;;11.60;;
85095;SDS011;75436;53.502;10.030;2024-03-07T00:53:34;27.08;;;11.52;;
85095;SDS011;75436;53.502;10.030;2024-03-07T00:55:59;31.08;;;11.30;;
85095;SDS011;75436;53.502;10.030;2024-03-07T00:58:25;24.35;;;11.23;;
85095;SDS011;75436;53.502;10.030;2024-03-07T01:00:50;29.42;;;11.50;;
85095;SDS011;75436;53.502;10.030;2024-03-07T01:03:15;23.50;;;10.93;;
85095;SDS011;75436;53.502;10.030;2024-03-07T01:05:42;28.20;;;12.23;;
85095;SDS011;75436;53.502;10.030;2024-03-07T01:08:08;27.83;;;11.75;;
85095;SDS011;75436;53.502;10.030;2024-03-07T01:10:34;30.27;;;11.63;;
85095;SDS011;75436;53.502;10.030;2024-03-07T01:12:59;27.55;;;11.38;;
85095;SDS011;75436;53.502;10.030;2024-03-07T01:15:27;23.45;;;10.95;;
85095;SDS011;75436;53.502;10.030;2024-03-07T01:17:53;29.90;;;11.70;;
85095;SDS011;75436;53.502;10.030;2024-03-07T01:20:19;28.48;;;11.63;;
85095;SDS011;75436;53.502;10.030;2024-03-07T01:22:44;28.27;;;11.70;;
85095;SDS011;75436;53.502;10.030;2024-03-07T01:25:10;32.25;;;11.63;;
85095;SDS011;75436;53.502;10.030;2024-03-07T01:27:37;26.98;;;10.55;;
85095;SDS011;75436;53.502;10.030;2024-03-07T01:30:03;29.63;;;10.52;;
85095;SDS011;75436;53.502;10.030;2024-03-07T01:32:33;25.38;;;10.82;;
85095;SDS011;75436;53.502;10.030;2024-03-07T01:34:59;28.52;;;10.80;;
85095;SDS011;75436;53.502;10.030;2024-03-07T01:37:24;26.75;;;11.60;;
85095;SDS011;75436;53.502;10.030;2024-03-07T01:39:49;28.63;;;10.60;;
85095;SDS011;75436;53.502;10.030;2024-03-07T01:42:15;29.98;;;10.55;;
85095;SDS011;75436;53.502;10.030;2024-03-07T01:44:40;27.25;;;10.82;;
85095;SDS011;75436;53.502;10.030;2024-03-07T01:47:06;28.30;;;12.07;;
85095;SDS011;75436;53.502;10.030;2024-03-07T01:49:32;28.70;;;11.45;;
85095;SDS011;75436;53.502;10.030;2024-03-07T01:51:58;33.50;;;13.15;;
85095;SDS011;75436;53.502;10.030;2024-03-07T01:54:25;25.02;;;10.90;;
85095;SDS011;75436;53.502;10.030;2024-03-07T01:56:51;25.98;;;11.38;;
85095;SDS011;75436;53.502;10.030;2024-03-07T01:59:18;26.48;;;10.77;;
85095;SDS011;75436;53.502;10.030;2024-03-07T02:01:45;26.83;;;11.15;;
85095;SDS011;75436;53.502;10.030;2024-03-07T02:04:11;25.77;;;10.80;;
85095;SDS011;75436;53.502;10.030;2024-03-07T02:06:37;29.77;;;10.48;;
85095;SDS011;75436;53.502;10.030;2024-03-07T02:09:03;25.00;;;10.60;;
85095;SDS011;75436;53.502;10.030;2024-03-07T02:11:29;28.95;;;10.77;;
85095;SDS011;75436;53.502;10.030;2024-03-07T02:13:55;27.10;;;12.30;;
85095;SDS011;75436;53.502;10.030;2024-03-07T02:16:20;32.22;;;11.73;;
85095;SDS011;75436;53.502;10.030;2024-03-07T02:18:46;29.20;;;11.63;;
85095;SDS011;75436;53.502;10.030;2024-03-07T02:21:12;33.97;;;12.70;;
85095;SDS011;75436;53.502;10.030;2024-03-07T02:23:37;31.70;;;13.27;;
85095;SDS011;75436;53.502;10.030;2024-03-07T02:26:03;30.42;;;12.90;;
85095;SDS011;75436;53.502;10.030;2024-03-07T02:28:29;34.58;;;13.27;;
85095;SDS011;75436;53.502;10.030;2024-03-07T02:30:54;29.60;;;12.27;;
85095;SDS011;75436;53.502;10.030;2024-03-07T02:33:20;32.95;;;13.45;;
85095;SDS011;75436;53.502;10.030;2024-03-07T02:35:45;33.85;;;13.32;;
85095;SDS011;75436;53.502;10.030;2024-03-07T02:40:59;33.65;;;13.73;;
85095;SDS011;75436;53.502;10.030;2024-03-07T02:43:24;28.90;;;12.73;;
85095;SDS011;75436;53.502;10.030;2024-03-07T02:45:50;30.08;;;12.38;;
85095;SDS011;75436;53.502;10.030;2024-03-07T02:48:15;30.70;;;13.35;;
85095;SDS011;75436;53.502;10.030;2024-03-07T02:50:43;34.90;;;13.80;;
85095;SDS011;75436;53.502;10.030;2024-03-07T02:53:08;31.40;;;13.02;;
85095;SDS011;75436;53.502;10.030;2024-03-07T02:55:34;31.50;;;13.57;;
85095;SDS011;75436;53.502;10.030;2024-03-07T02:57:59;31.08;;;14.63;;
85095;SDS011;75436;53.502;10.030;2024-03-07T03:00:25;35.47;;;13.82;;
85095;SDS011;75436;53.502;10.030;2024-03-07T03:02:57;32.13;;;13.88;;
85095;SDS011;75436;53.502;10.030;2024-03-07T03:05:22;30.80;;;13.55;;
85095;SDS011;75436;53.502;10.030;2024-03-07T03:07:49;31.45;;;13.38;;
85095;SDS011;75436;53.502;10.030;2024-03-07T03:10:26;33.28;;;13.95;;
85095;SDS011;75436;53.502;10.030;2024-03-07T03:12:54;30.83;;;12.63;;
85095;SDS011;75436;53.502;10.030;2024-03-07T03:15:24;27.88;;;12.40;;
85095;SDS011;75436;53.502;10.030;2024-03-07T03:17:50;33.58;;;13.18;;
85095;SDS011;75436;53.502;10.030;2024-03-07T03:20:16;30.88;;;12.60;;
85095;SDS011;75436;53.502;10.030;2024-03-07T03:22:56;29.00;;;12.60;;
85095;SDS011;75436;53.502;10.030;2024-03-07T03:25:21;25.38;;;11.27;;
85095;SDS011;75436;53.502;10.030;2024-03-07T03:27:48;31.40;;;12.13;;
85095;SDS011;75436;53.502;10.030;2024-03-07T03:30:14;29.08;;;12.32;;
85095;SDS011;75436;53.502;10.030;2024-03-07T03:32:41;23.13;;;11.93;;
85095;SDS011;75436;53.502;10.030;2024-03-07T03:35:07;25.83;;;11.32;;
85095;SDS011;75436;53.502;10.030;2024-03-07T03:37:47;25.98;;;10.80;;
85095;SDS011;75436;53.502;10.030;2024-03-07T03:40:12;29.73;;;11.30;;
85095;SDS011;75436;53.502;10.030;2024-03-07T03:42:38;22.00;;;11.10;;
85095;SDS011;75436;53.502;10.030;2024-03-07T03:45:08;28.60;;;11.20;;
85095;SDS011;75436;53.502;10.030;2024-03-07T03:47:39;21.75;;;10.68;;
85095;SDS011;75436;53.502;10.030;2024-03-07T03:50:05;30.60;;;11.77;;
85095;SDS011;75436;53.502;10.030;2024-03-07T03:52:32;24.83;;;10.98;;
85095;SDS011;75436;53.502;10.030;2024-03-07T03:54:58;26.75;;;11.23;;
85095;SDS011;75436;53.502;10.030;2024-03-07T03:57:27;25.88;;;10.90;;
85095;SDS011;75436;53.502;10.030;2024-03-07T03:59:54;29.67;;;11.85;;
85095;SDS011;75436;53.502;10.030;2024-03-07T04:02:21;23.77;;;11.88;;
85095;SDS011;75436;53.502;10.030;2024-03-07T04:04:49;25.55;;;11.20;;
85095;SDS011;75436;53.502;10.030;2024-03-07T04:07:18;30.00;;;12.05;;
85095;SDS011;75436;53.502;10.030;2024-03-07T04:09:44;25.45;;;10.05;;
85095;SDS011;75436;53.502;10.030;2024-03-07T04:12:11;24.83;;;11.38;;
85095;SDS011;75436;53.502;10.030;2024-03-07T04:14:39;24.70;;;10.40;;
85095;SDS011;75436;53.502;10.030;2024-03-07T04:17:05;28.40;;;11.85;;
85095;SDS011;75436;53.502;10.030;2024-03-07T04:19:33;25.48;;;10.68;;
85095;SDS011;75436;53.502;10.030;2024-03-07T04:22:00;22.90;;;10.35;;
85095;SDS011;75436;53.502;10.030;2024-03-07T04:24:28;24.05;;;11.07;;
85095;SDS011;75436;53.502;10.030;2024-03-07T04:26:54;25.20;;;10.10;;
85095;SDS011;75436;53.502;10.030;2024-03-07T04:29:20;22.77;;;10.45;;
85095;SDS011;75436;53.502;10.030;2024-03-07T04:31:45;22.77;;;10.05;;
85095;SDS011;75436;53.502;10.030;2024-03-07T04:34:10;23.10;;;10.45;;
85095;SDS011;75436;53.502;10.030;2024-03-07T04:36:36;20.85;;;9.93;;
85095;SDS011;75436;53.502;10.030;2024-03-07T04:39:01;20.75;;;9.73;;
85095;SDS011;75436;53.502;10.030;2024-03-07T04:41:29;23.27;;;10.13;;
85095;SDS011;75436;53.502;10.030;2024-03-07T04:43:54;24.67;;;9.90;;
85095;SDS011;75436;53.502;10.030;2024-03-07T04:46:20;23.48;;;9.55;;
85095;SDS011;75436;53.502;10.030;2024-03-07T04:48:45;22.35;;;10.75;;
85095;SDS011;75436;53.502;10.030;2024-03-07T04:51:11;21.05;;;9.68;;
85095;SDS011;75436;53.502;10.030;2024-03-07T04:53:37;21.52;;;10.77;;
85095;SDS011;75436;53.502;10.030;2024-03-07T04:56:07;23.08;;;8.80;;
85095;SDS011;75436;53.502;10.030;2024-03-07T04:58:34;21.45;;;9.05;;
85095;SDS011;75436;53.502;10.030;2024-03-07T05:01:01;23.83;;;10.00;;
85095;SDS011;75436;53.502;10.030;2024-03-07T05:03:27;21.40;;;10.18;;
85095;SDS011;75436;53.502;10.030;2024-03-07T05:05:52;19.23;;;9.25;;
85095;SDS011;75436;53.502;10.030;2024-03-07T05:08:18;22.42;;;9.30;;
85095;SDS011;75436;53.502;10.030;2024-03-07T05:10:43;26.58;;;10.13;;
85095;SDS011;75436;53.502;10.030;2024-03-07T05:13:09;20.83;;;9.18;;
85095;SDS011;75436;53.502;10.030;2024-03-07T05:15:34;20.17;;;8.30;;
85095;SDS011;75436;53.502;10.030;2024-03-07T05:17:59;18.80;;;9.10;;
85095;SDS011;75436;53.502;10.030;2024-03-07T05:20:25;19.63;;;8.98;;
85095;SDS011;75436;53.502;10.030;2024-03-07T05:22:53;24.75;;;9.82;;
85095;SDS011;75436;53.502;10.030;2024-03-07T05:25:19;22.48;;;8.82;;
85095;SDS011;75436;53.502;10.030;2024-03-07T05:27:46;19.45;;;9.35;;
85095;SDS011;75436;53.502;10.030;2024-03-07T05:30:15;21.77;;;9.50;;
85095;SDS011;75436;53.502;10.030;2024-03-07T05:32:40;21.05;;;9.07;;
85095;SDS011;75436;53.502;10.030;2024-03-07T05:35:06;19.65;;;8.40;;
85095;SDS011;75436;53.502;10.030;2024-03-07T05:37:33;19.42;;;9.07;;
85095;SDS011;75436;53.502;10.030;2024-03-07T05:39:58;21.52;;;8.75;;
85095;SDS011;75436;53.502;10.030;2024-03-07T05:42:24;20.90;;;9.70;;
85095;SDS011;75436;53.502;10.030;2024-03-07T05:44:50;15.90;;;7.95;;
85095;SDS011;75436;53.502;10.030;2024-03-07T05:47:19;16.98;;;9.27;;
85095;SDS011;75436;53.502;10.030;2024-03-07T05:49:45;20.20;;;9.18;;
85095;SDS011;75436;53.502;10.030;2024-03-07T05:52:11;17.83;;;8.88;;
85095;SDS011;75436;53.502;10.030;2024-03-07T05:54:36;18.63;;;9.15;;
85095;SDS011;75436;53.502;10.030;2024-03-07T05:57:01;18.98;;;8.93;;
85095;SDS011;75436;53.502;10.030;2024-03-07T05:59:27;17.65;;;10.05;;
85095;SDS011;75436;53.502;10.030;2024-03-07T06:01:56;21.65;;;9.10;;
85095;SDS011;75436;53.502;10.030;2024-03-07T06:04:22;18.42;;;10.00;;
85095;SDS011;75436;53.502;10.030;2024-03-07T06:06:47;20.50;;;9.50;;
85095;SDS011;75436;53.502;10.030;2024-03-07T06:09:13;17.58;;;8.68;;
85095;SDS011;75436;53.502;10.030;2024-03-07T06:11:40;20.80;;;9.75;;
85095;SDS011;75436;53.502;10.030;2024-03-07T06:14:09;19.40;;;9.88;;
85095;SDS011;75436;53.502;10.030;2024-03-07T06:16:39;22.83;;;10.30;;
85095;SDS011;75436;53.502;10.030;2024-03-07T06:19:06;26.92;;;10.98;;
85095;SDS011;75436;53.502;10.030;2024-03-07T06:21:33;25.95;;;10.38;;
85095;SDS011;75436;53.502;10.030;2024-03-07T06:24:00;20.10;;;10.48;;
85095;SDS011;75436;53.502;10.030;2024-03-07T06:26:37;20.23;;;10.48;;
85095;SDS011;75436;53.502;10.030;2024-03-07T06:29:10;25.83;;;11.60;;
85095;SDS011;75436;53.502;10.030;2024-03-07T06:31:41;20.67;;;10.68;;
85095;SDS011;75436;53.502;10.030;2024-03-07T06:34:07;17.30;;;9.40;;
85095;SDS011;75436;53.502;10.030;2024-03-07T06:36:33;21.77;;;10.50;;
85095;SDS011;75436;53.502;10.030;2024-03-07T06:38:59;24.27;;;10.25;;
85095;SDS011;75436;53.502;10.030;2024-03-07T06:41:25;23.90;;;10.20;;
85095;SDS011;75436;53.502;10.030;2024-03-07T06:43:51;25.48;;;10.68;;
85095;SDS011;75436;53.502;10.030;2024-03-07T06:46:20;23.08;;;10.00;;
85095;SDS011;75436;53.502;10.030;2024-03-07T06:48:45;22.20;;;10.00;;
85095;SDS011;75436;53.502;10.030;2024-03-07T06:51:11;20.77;;;9.95;;
85095;SDS011;75436;53.502;10.030;2024-03-07T06:53:36;21.73;;;9.45;;
85095;SDS011;75436;53.502;10.030;2024-03-07T06:56:02;18.17;;;10.07;;
85095;SDS011;75436;53.502;10.030;2024-03-07T06:58:27;19.23;;;9.70;;
85095;SDS011;75436;53.502;10.030;2024-03-07T07:00:53;21.65;;;10.38;;
85095;SDS011;75436;53.502;10.030;2024-03-07T07:03:20;25.67;;;11.40;;
85095;SDS011;75436;53.502;10.030;2024-03-07T07:05:47;23.23;;;10.63;;
85095;SDS011;75436;53.502;10.030;2024-03-07T07:08:13;20.77;;;10.43;;
85095;SDS011;75436;53.502;10.030;2024-03-07T07:10:39;21.27;;;10.13;;
85095;SDS011;75436;53.502;10.030;2024-03-07T07:13:08;21.60;;;10.02;;
85095;SDS011;75436;53.502;10.030;2024-03-07T07:15:35;22.42;;;11.32;;
85095;SDS011;75436;53.502;10.030;2024-03-07T07:18:02;20.05;;;9.95;;
85095;SDS011;75436;53.502;10.030;2024-03-07T07:20:29;17.98;;;8.90;;
85095;SDS011;75436;53.502;10.030;2024-03-07T07:22:54;16.60;;;9.00;;
85095;SDS011;75436;53.502;10.030;2024-03-07T07:25:22;19.10;;;9.07;;
85095;SDS011;75436;53.502;10.030;2024-03-07T07:27:49;19.85;;;9.07;;
85095;SDS011;75436;53.502;10.030;2024-03-07T07:30:17;46.13;;;12.45;;
85095;SDS011;75436;53.502;10.030;2024-03-07T07:32:45;17.08;;;8.95;;
85095;SDS011;75436;53.502;10.030;2024-03-07T07:35:11;17.23;;;9.13;;
85095;SDS011;75436;53.502;10.030;2024-03-07T07:37:40;17.45;;;8.90;;
85095;SDS011;75436;53.502;10.030;2024-03-07T07:40:15;18.70;;;9.20;;
85095;SDS011;75436;53.502;10.030;2024-03-07T07:42:47;17.88;;;8.73;;
85095;SDS011;75436;53.502;10.030;2024-03-07T07:45:17;20.05;;;9.02;;
85095;SDS011;75436;53.502;10.030;2024-03-07T07:47:46;21.60;;;9.50;;
85095;SDS011;75436;53.502;10.030;2024-03-07T07:50:15;16.65;;;8.48;;
85095;SDS011;75436;53.502;10.030;2024-03-07T07:52:51;16.50;;;8.48;;
85095;SDS011;75436;53.502;10.030;2024-03-07T07:55:25;14.57;;;7.85;;
85095;SDS011;75436;53.502;10.030;2024-03-07T07:57:54;13.50;;;6.40;;
85095;SDS011;75436;53.502;10.030;2024-03-07T08:00:23;13.80;;;8.25;;
85095;SDS011;75436;53.502;10.030;2024-03-07T08:02:51;14.73;;;7.65;;
85095;SDS011;75436;53.502;10.030;2024-03-07T08:05:23;13.38;;;7.28;;
85095;SDS011;75436;53.502;10.030;2024-03-07T08:07:53;20.27;;;7.95;;
85095;SDS011;75436;53.502;10.030;2024-03-07T08:10:23;19.48;;;7.45;;
85095;SDS011;75436;53.502;10.030;2024-03-07T08:12:53;15.45;;;8.10;;
85095;SDS011;75436;53.502;10.030;2024-03-07T08:15:26;15.68;;;7.10;;
85095;SDS011;75436;53.502;10.030;2024-03-07T08:17:53;14.05;;;8.50;;
85095;SDS011;75436;53.502;10.030;2024-03-07T08:20:20;14.63;;;6.95;;
85095;SDS011;75436;53.502;10.030;2024-03-07T08:22:47;14.20;;;7.07;;
85095;SDS011;75436;53.502;10.030;2024-03-07T08:25:21;24.23;;;7.45;;
85095;SDS011;75436;53.502;10.030;2024-03-07T08:27:49;14.90;;;7.53;;
85095;SDS011;75436;53.502;10.030;2024-03-07T08:30:16;17.63;;;7.90;;
85095;SDS011;75436;53.502;10.030;2024-03-07T08:32:43;16.63;;;8.40;;
85095;SDS011;75436;53.502;10.030;2024-03-07T08:35:11;20.42;;;8.27;;
85095;SDS011;75436;53.502;10.030;2024-03-07T08:37:38;13.93;;;7.28;;
85095;SDS011;75436;53.502;10.030;2024-03-07T08:40:05;15.63;;;7.78;;
85095;SDS011;75436;53.502;10.030;2024-03-07T08:42:33;18.58;;;8.35;;
85095;SDS011;75436;53.502;10.030;2024-03-07T08:45:00;18.63;;;7.72;;
85095;SDS011;75436;53.502;10.030;2024-03-07T08:47:29;16.42;;;7.93;;
85095;SDS011;75436;53.502;10.030;2024-03-07T08:49:58;19.95;;;8.40;;
85095;SDS011;75436;53.502;10.030;2024-03-07T08:52:25;18.25;;;8.57;;
85095;SDS011;75436;53.502;10.030;2024-03-07T08:54:52;15.77;;;8.00;;
85095;SDS011;75436;53.502;10.030;2024-03-07T08:57:18;15.77;;;8.02;;
85095;SDS011;75436;53.502;10.030;2024-03-07T08:59:44;17.55;;;8.10;;
85095;SDS011;75436;53.502;10.030;2024-03-07T09:02:11;19.20;;;7.22;;
85095;SDS011;75436;53.502;10.030;2024-03-07T09:04:37;14.25;;;7.68;;
85095;SDS011;75436;53.502;10.030;2024-03-07T09:07:03;14.30;;;7.13;;
85095;SDS011;75436;53.502;10.030;2024-03-07T09:09:31;16.23;;;6.88;;
85095;SDS011;75436;53.502;10.030;2024-03-07T09:11:57;13.35;;;6.70;;
85095;SDS011;75436;53.502;10.030;2024-03-07T09:14:22;15.43;;;6.10;;
85095;SDS011;75436;53.502;10.030;2024-03-07T09:16:48;14.77;;;6.78;;
85095;SDS011;75436;53.502;10.030;2024-03-07T09:19:14;12.15;;;5.78;;
85095;SDS011;75436;53.502;10.030;2024-03-07T09:21:44;11.30;;;6.13;;
85095;SDS011;75436;53.502;10.030;2024-03-07T09:24:15;11.30;;;6.38;;
85095;SDS011;75436;53.502;10.030;2024-03-07T09:26:41;12.20;;;5.88;;
85095;SDS011;75436;53.502;10.030;2024-03-07T09:29:06;16.83;;;7.20;;
85095;SDS011;75436;53.502;10.030;2024-03-07T09:31:32;12.55;;;6.25;;
85095;SDS011;75436;53.502;10.030;2024-03-07T09:33:58;17.77;;;7.28;;
85095;SDS011;75436;53.502;10.030;2024-03-07T09:36:24;14.48;;;7.05;;
85095;SDS011;75436;53.502;10.030;2024-03-07T09:38:50;13.30;;;6.90;;
85095;SDS011;75436;53.502;10.030;2024-03-07T09:41:15;17.20;;;7.30;;
85095;SDS011;75436;53.502;10.030;2024-03-07T09:43:43;15.43;;;6.93;;
85095;SDS011;75436;53.502;10.030;2024-03-07T09:46:11;17.65;;;7.95;;
85095;SDS011;75436;53.502;10.030;2024-03-07T09:48:37;14.73;;;8.00;;
85095;SDS011;75436;53.502;10.030;2024-03-07T09:51:04;13.63;;;6.60;;
85095;SDS011;75436;53.502;10.030;2024-03-07T09:53:35;22.10;;;7.53;;
85095;SDS011;75436;53.502;10.030;2024-03-07T09:56:02;17.50;;;8.05;;
85095;SDS011;75436;53.502;10.030;2024-03-07T09:58:31;17.48;;;7.60;;
85095;SDS011;75436;53.502;10.030;2024-03-07T10:00:58;28.48;;;8.90;;
85095;SDS011;75436;53.502;10.030;2024-03-07T10:03:29;17.98;;;8.55;;
85095;SDS011;75436;53.502;10.030;2024-03-07T10:05:55;19.38;;;7.97;;
85095;SDS011;75436;53.502;10.030;2024-03-07T10:08:21;15.38;;;7.30;;
85095;SDS011;75436;53.502;10.030;2024-03-07T10:10:49;24.27;;;8.43;;
85095;SDS011;75436;53.502;10.030;2024-03-07T10:13:15;21.08;;;8.75;;
85095;SDS011;75436;53.502;10.030;2024-03-07T10:15:42;21.35;;;9.00;;
85095;SDS011;75436;53.502;10.030;2024-03-07T10:18:08;21.45;;;9.05;;
85095;SDS011;75436;53.502;10.030;2024-03-07T10:20:37;23.85;;;8.75;;
85095;SDS011;75436;53.502;10.030;2024-03-07T10:23:04;20.67;;;9.68;;
85095;SDS011;75436;53.502;10.030;2024-03-07T10:25:32;22.35;;;9.63;;
85095;SDS011;75436;53.502;10.030;2024-03-07T10:27:58;21.38;;;9.07;;
85095;SDS011;75436;53.502;10.030;2024-03-07T10:30:25;18.83;;;9.73;;
85095;SDS011;75436;53.502;10.030;2024-03-07T10:32:58;19.70;;;9.40;;
85095;SDS011;75436;53.502;10.030;2024-03-07T10:35:24;29.17;;;9.48;;
85095;SDS011;75436;53.502;10.030;2024-03-07T10:37:51;23.58;;;9.65;;
85095;SDS011;75436;53.502;10.030;2024-03-07T10:40:19;21.60;;;9.30;;
85095;SDS011;75436;53.502;10.030;2024-03-07T10:42:47;22.70;;;9.13;;
85095;SDS011;75436;53.502;10.030;2024-03-07T10:45:19;24.80;;;9.60;;
85095;SDS011;75436;53.502;10.030;2024-03-07T10:47:47;24.58;;;8.85;;
85095;SDS011;75436;53.502;10.030;2024-03-07T10:51:06;19.98;;;9.43;;
85095;SDS011;75436;53.502;10.030;2024-03-07T10:59:37;19.45;;;8.32;;
85095;SDS011;75436;53.502;10.030;2024-03-07T11:05:05;22.63;;;10.25;;
85095;SDS011;75436;53.502;10.030;2024-03-07T11:07:37;17.42;;;8.38;;
85095;SDS011;75436;53.502;10.030;2024-03-07T11:10:02;18.95;;;8.82;;
85095;SDS011;75436;53.502;10.030;2024-03-07T11:12:36;17.30;;;8.05;;
85095;SDS011;75436;53.502;10.030;2024-03-07T11:15:06;19.95;;;8.35;;
85095;SDS011;75436;53.502;10.030;2024-03-07T11:17:43;18.45;;;8.85;;
85095;SDS011;75436;53.502;10.030;2024-03-07T11:20:24;16.35;;;7.85;;
85095;SDS011;75436;53.502;10.030;2024-03-07T11:22:51;18.65;;;8.80;;
85095;SDS011;75436;53.502;10.030;2024-03-07T11:25:21;19.02;;;8.95;;
85095;SDS011;75436;53.502;10.030;2024-03-07T11:27:51;19.00;;;8.85;;
85095;SDS011;75436;53.502;10.030;2024-03-07T11:30:22;17.33;;;8.63;;
85095;SDS011;75436;53.502;10.030;2024-03-07T11:32:51;19.10;;;8.85;;
85095;SDS011;75436;53.502;10.030;2024-03-07T11:35:19;16.27;;;8.90;;
85095;SDS011;75436;53.502;10.030;2024-03-07T11:38:06;20.95;;;9.32;;
85095;SDS011;75436;53.502;10.030;2024-03-07T11:43:04;23.90;;;10.45;;
85095;SDS011;75436;53.502;10.030;2024-03-07T11:45:31;18.13;;;8.43;;
85095;SDS011;75436;53.502;10.030;2024-03-07T11:48:06;23.40;;;9.73;;
85095;SDS011;75436;53.502;10.030;2024-03-07T11:50:38;21.42;;;10.00;;
85095;SDS011;75436;53.502;10.030;2024-03-07T11:53:05;20.10;;;8.90;;
85095;SDS011;75436;53.502;10.030;2024-03-07T11:55:33;18.77;;;8.90;;
85095;SDS011;75436;53.502;10.030;2024-03-07T11:58:12;18.95;;;8.85;;
85095;SDS011;75436;53.502;10.030;2024-03-07T12:00:41;20.80;;;9.43;;
85095;SDS011;75436;53.502;10.030;2024-03-07T12:03:10;21.63;;;9.95;;
85095;SDS011;75436;53.502;10.030;2024-03-07T12:05:42;22.50;;;9.40;;
85095;SDS011;75436;53.502;10.030;2024-03-07T12:08:11;18.00;;;9.45;;
85095;SDS011;75436;53.502;10.030;2024-03-07T12:10:37;23.55;;;8.65;;
85095;SDS011;75436;53.502;10.030;2024-03-07T12:13:08;23.58;;;9.13;;
85095;SDS011;75436;53.502;10.030;2024-03-07T12:15:40;21.05;;;9.52;;
85095;SDS011;75436;53.502;10.030;2024-03-07T12:18:07;20.17;;;9.60;;
85095;SDS011;75436;53.502;10.030;2024-03-07T12:20:41;20.67;;;9.95;;
85095;SDS011;75436;53.502;10.030;2024-03-07T12:23:11;20.90;;;9.90;;
85095;SDS011;75436;53.502;10.030;2024-03-07T12:25:37;18.63;;;9.77;;
85095;SDS011;75436;53.502;10.030;2024-03-07T12:28:09;20.38;;;10.15;;
85095;SDS011;75436;53.502;10.030;2024-03-07T12:33:12;23.90;;;10.50;;
85095;SDS011;75436;53.502;10.030;2024-03-07T12:35:41;18.48;;;8.93;;
85095;SDS011;75436;53.502;10.030;2024-03-07T12:38:08;21.75;;;11.38;;
85095;SDS011;75436;53.502;10.030;2024-03-07T12:40:36;29.98;;;11.93;;
85095;SDS011;75436;53.502;10.030;2024-03-07T12:43:02;23.80;;;10.25;;
85095;SDS011;75436;53.502;10.030;2024-03-07T12:45:53;27.27;;;10.88;;
85095;SDS011;75436;53.502;10.030;2024-03-07T12:48:19;24.40;;;9.48;;
85095;SDS011;75436;53.502;10.030;2024-03-07T12:50:49;25.85;;;11.43;;
85095;SDS011;75436;53.502;10.030;2024-03-07T12:53:18;22.30;;;10.63;;
85095;SDS011;75436;53.502;10.030;2024-03-07T12:55:48;22.08;;;10.13;;
85095;SDS011;75436;53.502;10.030;2024-03-07T12:58:14;25.23;;;10.88;;
85095;SDS011;75436;53.502;10.030;2024-03-07T13:00:40;20.20;;;10.30;;
85095;SDS011;75436;53.502;10.030;2024-03-07T13:03:07;22.08;;;10.63;;
85095;SDS011;75436;53.502;10.030;2024-03-07T13:05:34;20.23;;;10.18;;
85095;SDS011;75436;53.502;10.030;2024-03-07T13:08:08;22.60;;;10.80;;
85095;SDS011;75436;53.502;10.030;2024-03-07T13:10:46;26.73;;;10.57;;
85095;SDS011;75436;53.502;10.030;2024-03-07T13:13:11;26.02;;;10.70;;
85095;SDS011;75436;53.502;10.030;2024-03-07T13:15:37;21.13;;;10.90;;
85095;SDS011;75436;53.502;10.030;2024-03-07T13:18:04;24.83;;;11.25;;
85095;SDS011;75436;53.502;10.030;2024-03-07T13:20:31;27.17;;;11.25;;
85095;SDS011;75436;53.502;10.030;2024-03-07T13:22:57;24.63;;;11.93;;
85095;SDS011;75436;53.502;10.030;2024-03-07T13:25:25;23.45;;;11.13;;
85095;SDS011;75436;53.502;10.030;2024-03-07T13:30:28;28.33;;;11.30;;
85095;SDS011;75436;53.502;10.030;2024-03-07T13:32:58;25.30;;;10.73;;
85095;SDS011;75436;53.502;10.030;2024-03-07T13:35:24;27.00;;;10.93;;
85095;SDS011;75436;53.502;10.030;2024-03-07T13:37:52;22.55;;;10.70;;
85095;SDS011;75436;53.502;10.030;2024-03-07T13:40:22;25.55;;;11.18;;
85095;SDS011;75436;53.502;10.030;2024-03-07T13:42:51;25.42;;;11.50;;
85095;SDS011;75436;53.502;10.030;2024-03-07T13:45:22;24.40;;;10.98;;
85095;SDS011;75436;53.502;10.030;2024-03-07T13:47:51;23.58;;;10.75;;
85095;SDS011;75436;53.502;10.030;2024-03-07T13:50:20;26.10;;;11.18;;
85095;SDS011;75436;53.502;10.030;2024-03-07T13:52:49;35.40;;;12.98;;
85095;SDS011;75436;53.502;10.030;2024-03-07T13:55:33;26.63;;;11.50;;
85095;SDS011;75436;53.502;10.030;2024-03-07T14:04:28;23.67;;;10.70;;
85095;SDS011;75436;53.502;10.030;2024-03-07T14:20:16;21.48;;;10.02;;
85095;SDS011;75436;53.502;10.030;2024-03-07T14:31:05;19.25;;;10.80;;
85095;SDS011;75436;53.502;10.030;2024-03-07T14:36:31;20.77;;;10.07;;
85095;SDS011;75436;53.502;10.030;2024-03-07T14:39:05;18.70;;;10.00;;
85095;SDS011;75436;53.502;10.030;2024-03-07T14:41:45;21.08;;;9.95;;
85095;SDS011;75436;53.502;10.030;2024-03-07T14:44:15;25.15;;;10.90;;
85095;SDS011;75436;53.502;10.030;2024-03-07T14:46:42;21.05;;;10.15;;
85095;SDS011;75436;53.502;10.030;2024-03-07T14:49:10;32.80;;;10.88;;
85095;SDS011;75436;53.502;10.030;2024-03-07T14:51:41;23.80;;;10.68;;
85095;SDS011;75436;53.502;10.030;2024-03-07T14:54:07;21.10;;;10.18;;
85095;SDS011;75436;53.502;10.030;2024-03-07T14:56:33;20.40;;;11.10;;
85095;SDS011;75436;53.502;10.030;2024-03-07T14:59:00;26.15;;;11.68;;
85095;SDS011;75436;53.502;10.030;2024-03-07T15:01:30;22.83;;;11.77;;
85095;SDS011;75436;53.502;10.030;2024-03-07T15:03:58;26.30;;;11.20;;
85095;SDS011;75436;53.502;10.030;2024-03-07T15:06:23;23.63;;;10.90;;
85095;SDS011;75436;53.502;10.030;2024-03-07T15:08:49;22.15;;;10.77;;